Time;durP1;ratioP1;P1;durP2;ratioP2;P2;SDS_P1;SDS_P2;PMS_P1;PMS_P2;Temp;Humidity;BMP_temperature;BMP_pressure;BME280_temperature;BME280_humidity;BME280_pressure;Samples;Min_cycle;Max_cycle;Signal;HPM_P1;HPM_P2
2021/05/04 00:01:09;;;;;;;5.03;2.05;;;13.20;50.00;;;;;;5073272;28;20462;-73
2021/05/04 00:03:34;;;;;;;2.83;1.80;;;13.30;50.10;;;;;;5073710;28;20396;-73
2021/05/04 00:06:00;;;;;;;3.17;1.98;;;13.30;50.00;;;;;;5073566;28;20108;-72
2021/05/04 00:08:25;;;;;;;4.38;2.05;;;13.30;49.90;;;;;;5073529;28;20074;-72
2021/05/04 00:10:51;;;;;;;4.72;1.88;;;13.30;49.90;;;;;;5072366;28;20025;-72
2021/05/04 00:13:17;;;;;;;3.63;1.58;;;13.40;49.60;;;;;;5072263;28;20024;-73
2021/05/04 00:15:43;;;;;;;3.05;1.50;;;13.30;49.50;;;;;;5073460;28;20051;-72
2021/05/04 00:18:08;;;;;;;5.30;1.83;;;13.30;49.50;;;;;;5072052;28;20025;-73
2021/05/04 00:20:34;;;;;;;5.75;2.10;;;13.40;50.00;;;;;;5071914;28;20041;-73
2021/05/04 00:22:59;;;;;;;5.20;2.00;;;13.30;50.00;;;;;;5073443;28;20111;-73
2021/05/04 00:25:25;;;;;;;3.95;1.75;;;13.30;50.30;;;;;;5072104;28;20515;-73
2021/05/04 00:27:51;;;;;;;4.95;1.80;;;13.40;51.20;;;;;;5072108;28;20042;-73
2021/05/04 00:30:19;;;;;;;3.45;1.63;;;13.30;50.80;;;;;;5073655;28;20058;-73
2021/05/04 00:32:45;;;;;;;3.17;1.65;;;13.30;51.00;;;;;;5073544;28;20407;-72
2021/05/04 00:35:11;;;;;;;3.00;1.48;;;13.20;51.20;;;;;;5071790;28;20028;-73
2021/05/04 00:37:36;;;;;;;4.93;1.48;;;13.20;51.40;;;;;;5073187;28;20038;-72
2021/05/04 00:40:03;;;;;;;2.42;1.50;;;13.20;51.60;;;;;;5073660;28;20024;-73
2021/05/04 00:42:29;;;;;;;3.97;1.70;;;13.20;51.90;;;;;;5071688;28;20059;-73
2021/05/04 00:44:54;;;;;;;7.15;1.70;;;13.10;52.30;;;;;;5073098;28;20483;-72
2021/05/04 00:47:20;;;;;;;3.53;1.63;;;13.10;52.60;;;;;;5071655;28;20055;-73
2021/05/04 00:49:46;;;;;;;2.10;1.55;;;13.00;53.90;;;;;;5072948;28;20035;-73
2021/05/04 00:52:12;;;;;;;2.95;1.90;;;12.90;55.20;;;;;;5072927;28;20036;-72
2021/05/04 00:54:39;;;;;;;3.22;1.80;;;12.80;55.70;;;;;;5072787;28;20380;-73
2021/05/04 00:57:07;;;;;;;3.13;1.70;;;12.60;57.00;;;;;;5071619;28;20024;-73
2021/05/04 00:59:34;;;;;;;5.97;1.63;;;12.50;57.90;;;;;;5071743;28;20028;-73
2021/05/04 01:02:00;;;;;;;3.13;1.70;;;12.40;58.50;;;;;;5071686;28;20081;-74
2021/05/04 01:04:26;;;;;;;2.15;1.65;;;12.30;59.20;;;;;;5071621;28;20455;-73
2021/05/04 01:06:52;;;;;;;3.47;1.65;;;12.20;59.60;;;;;;5071607;28;20028;-73
2021/05/04 01:09:18;;;;;;;3.25;1.52;;;12.10;60.40;;;;;;5072858;28;20090;-73
2021/05/04 01:11:45;;;;;;;5.15;1.90;;;12.00;60.90;;;;;;5071388;28;20025;-72
2021/05/04 01:14:12;;;;;;;3.80;2.00;;;11.90;61.90;;;;;;5073209;28;20032;-73
2021/05/04 01:16:49;;;;;;;4.82;1.70;;;11.80;62.20;;;;;;5071199;28;20495;-73
2021/05/04 01:19:16;;;;;;;7.28;2.00;;;11.70;62.80;;;;;;5070972;28;20052;-73
2021/05/04 01:21:41;;;;;;;3.85;1.50;;;11.60;63.50;;;;;;5072406;28;20035;-73
2021/05/04 01:24:07;;;;;;;5.25;1.55;;;11.60;63.80;;;;;;5072775;28;20392;-73
2021/05/04 01:26:36;;;;;;;3.65;1.70;;;11.50;64.10;;;;;;5072339;28;20067;-72
2021/05/04 01:29:03;;;;;;;3.90;1.63;;;11.50;64.80;;;;;;5072387;28;20114;-72
2021/05/04 01:31:29;;;;;;;3.65;1.40;;;11.40;65.10;;;;;;5070918;28;20387;-72
2021/05/04 01:33:54;;;;;;;4.50;1.80;;;11.40;65.70;;;;;;5070979;28;20119;-72
2021/05/04 01:36:20;;;;;;;5.63;1.92;;;11.30;65.90;;;;;;5071052;28;20027;-72
2021/05/04 01:38:46;;;;;;;1.95;1.30;;;11.30;66.10;;;;;;5072690;28;20031;-72
2021/05/04 01:41:11;;;;;;;3.13;1.50;;;11.20;65.90;;;;;;5072744;28;20103;-73
2021/05/04 01:43:37;;;;;;;4.50;1.92;;;11.20;66.20;;;;;;5070927;28;20028;-72
2021/05/04 01:46:03;;;;;;;3.35;1.63;;;11.20;67.10;;;;;;5072195;28;20115;-72
2021/05/04 01:48:28;;;;;;;2.38;1.58;;;11.10;67.40;;;;;;5072633;28;20382;-72
2021/05/04 01:50:54;;;;;;;3.53;2.03;;;11.10;67.70;;;;;;5070812;28;20052;-73
2021/05/04 01:53:19;;;;;;;3.17;1.83;;;11.10;67.90;;;;;;5070685;28;20048;-72
2021/05/04 01:55:45;;;;;;;1.50;1.40;;;11.00;68.00;;;;;;5072214;28;20377;-73
2021/05/04 01:58:11;;;;;;;7.55;1.67;;;11.00;68.20;;;;;;5070857;28;20029;-73
2021/05/04 02:00:37;;;;;;;3.42;2.15;;;11.00;68.30;;;;;;5072072;28;20062;-73
2021/05/04 02:03:03;;;;;;;2.85;1.63;;;11.00;68.80;;;;;;5070743;28;20060;-73
2021/05/04 02:05:29;;;;;;;3.13;1.80;;;11.00;69.00;;;;;;5072033;28;20055;-72
2021/05/04 02:07:54;;;;;;;6.07;1.70;;;10.90;69.20;;;;;;5070719;28;20020;-73
2021/05/04 02:10:20;;;;;;;4.43;1.50;;;10.90;69.30;;;;;;5070667;28;20426;-73
2021/05/04 02:12:45;;;;;;;2.60;2.05;;;10.90;69.60;;;;;;5070439;28;20078;-73
2021/05/04 02:15:11;;;;;;;2.47;1.67;;;10.90;70.00;;;;;;5072173;28;20024;-73
2021/05/04 02:17:37;;;;;;;3.17;1.73;;;10.80;69.80;;;;;;5071829;28;20048;-73
2021/05/04 02:20:05;;;;;;;2.65;1.90;;;10.80;70.10;;;;;;5070428;28;20446;-73
2021/05/04 02:22:31;;;;;;;1.85;1.75;;;10.70;70.80;;;;;;5073560;28;20090;-73
2021/05/04 02:24:56;;;;;;;1.75;1.60;;;10.70;70.70;;;;;;5074097;28;20036;-73
2021/05/04 02:27:22;;;;;;;1.83;1.70;;;10.70;71.20;;;;;;5074119;28;20024;-73
2021/05/04 02:29:47;;;;;;;2.05;1.60;;;10.70;70.70;;;;;;5075727;28;20157;-75
2021/05/04 02:32:13;;;;;;;2.13;1.90;;;10.70;70.60;;;;;;5075264;28;20065;-73
2021/05/04 02:34:39;;;;;;;2.67;2.05;;;10.70;71.50;;;;;;5073977;28;20021;-73
2021/05/04 02:37:04;;;;;;;4.43;1.90;;;10.60;71.60;;;;;;5073977;28;20411;-74
2021/05/04 02:39:30;;;;;;;3.08;1.90;;;10.60;71.60;;;;;;5075134;28;20118;-73
2021/05/04 02:41:55;;;;;;;2.28;1.80;;;10.60;71.70;;;;;;5075191;28;20047;-72
2021/05/04 02:44:21;;;;;;;2.22;2.03;;;10.60;72.20;;;;;;5075023;28;20028;-72
2021/05/04 02:46:47;;;;;;;2.90;1.98;;;10.60;72.10;;;;;;5073714;28;20074;-72
2021/05/04 02:49:13;;;;;;;2.47;2.00;;;10.60;73.20;;;;;;5073700;28;20066;-73
2021/05/04 02:51:38;;;;;;;2.95;1.85;;;10.60;72.60;;;;;;5073575;28;20029;-73
2021/05/04 02:54:04;;;;;;;2.10;1.55;;;10.50;72.70;;;;;;5075233;28;20021;-73
2021/05/04 02:56:30;;;;;;;2.47;1.60;;;10.50;72.60;;;;;;5074938;28;20025;-73
2021/05/04 02:58:56;;;;;;;4.00;1.95;;;10.50;72.70;;;;;;5074819;28;20036;-73
2021/05/04 03:01:21;;;;;;;2.42;1.60;;;10.50;72.50;;;;;;5074946;28;20047;-73
2021/05/04 03:03:47;;;;;;;1.83;1.40;;;10.50;73.50;;;;;;5073316;28;20029;-72
2021/05/04 03:06:13;;;;;;;2.08;1.63;;;10.40;72.70;;;;;;5074841;28;20028;-73
2021/05/04 03:08:38;;;;;;;2.45;1.75;;;10.40;72.80;;;;;;5074549;28;20545;-73
2021/05/04 03:11:04;;;;;;;2.60;1.65;;;10.40;73.40;;;;;;5074633;28;20115;-73
2021/05/04 03:13:31;;;;;;;3.75;2.17;;;10.30;73.50;;;;;;5074562;28;20371;-72
2021/05/04 03:15:58;;;;;;;2.15;1.95;;;10.30;74.20;;;;;;5074461;28;20064;-74
2021/05/04 03:18:24;;;;;;;3.30;1.55;;;10.30;74.20;;;;;;5073246;28;20064;-73
2021/05/04 03:20:51;;;;;;;2.78;1.83;;;10.30;74.10;;;;;;5074219;28;20468;-72
2021/05/04 03:23:18;;;;;;;4.18;1.80;;;10.30;74.10;;;;;;5074658;28;20029;-72
2021/05/04 03:25:44;;;;;;;3.58;1.80;;;10.30;74.40;;;;;;5073063;28;20021;-73
2021/05/04 03:28:10;;;;;;;2.10;1.90;;;10.30;74.70;;;;;;5074379;28;20042;-73
2021/05/04 03:30:36;;;;;;;3.50;1.70;;;10.30;74.70;;;;;;5074258;28;20107;-72
2021/05/04 03:33:02;;;;;;;4.07;1.80;;;10.40;74.90;;;;;;5072192;28;20068;-73
2021/05/04 03:35:28;;;;;;;3.67;1.70;;;10.40;74.70;;;;;;5072536;28;20032;-73
2021/05/04 03:37:53;;;;;;;2.42;1.60;;;10.30;74.60;;;;;;5072952;28;20033;-73
2021/05/04 03:40:19;;;;;;;2.42;1.60;;;10.40;74.20;;;;;;5074442;28;20361;-72
2021/05/04 03:42:45;;;;;;;2.75;1.50;;;10.40;74.10;;;;;;5072831;28;20032;-72
2021/05/04 03:45:12;;;;;;;2.10;1.55;;;10.40;74.10;;;;;;5072989;28;20032;-71
2021/05/04 03:47:41;;;;;;;2.90;1.50;;;10.40;74.00;;;;;;5073952;28;20029;-72
2021/05/04 03:50:10;;;;;;;2.33;1.42;;;10.40;74.10;;;;;;5074021;28;20035;-72
2021/05/04 03:52:36;;;;;;;2.60;1.65;;;10.40;74.10;;;;;;5072443;28;20028;-72
2021/05/04 03:55:02;;;;;;;1.92;1.60;;;10.40;74.00;;;;;;5072548;28;20027;-72
2021/05/04 03:57:28;;;;;;;2.25;1.63;;;10.40;74.00;;;;;;5072505;28;20028;-72
2021/05/04 03:59:54;;;;;;;2.78;1.83;;;10.40;74.10;;;;;;5072442;28;20436;-72
2021/05/04 04:02:19;;;;;;;2.88;1.63;;;10.40;74.60;;;;;;5072405;28;20024;-72
2021/05/04 04:04:45;;;;;;;2.35;1.40;;;10.30;74.90;;;;;;5072909;28;20434;-72
2021/05/04 04:07:11;;;;;;;1.60;1.50;;;10.30;74.80;;;;;;5072154;28;20028;-73
2021/05/04 04:09:37;;;;;;;2.47;1.70;;;10.30;75.20;;;;;;5072102;28;20036;-72
2021/05/04 04:12:05;;;;;;;1.95;1.67;;;10.40;75.40;;;;;;5073597;28;20112;-72
2021/05/04 04:14:31;;;;;;;1.80;1.70;;;10.30;75.50;;;;;;5073365;28;20032;-72
2021/05/04 04:16:56;;;;;;;3.05;1.58;;;10.30;75.50;;;;;;5072123;28;20028;-72
2021/05/04 04:19:22;;;;;;;2.13;1.70;;;10.30;75.60;;;;;;5071924;28;20080;-73
2021/05/04 04:21:49;;;;;;;2.15;1.80;;;10.30;75.70;;;;;;5073756;28;20529;-73
2021/05/04 04:24:16;;;;;;;2.08;1.60;;;10.30;75.80;;;;;;5072048;28;20028;-73
2021/05/04 04:26:41;;;;;;;1.80;1.70;;;10.30;75.80;;;;;;5071878;28;20100;-72
2021/05/04 04:29:07;;;;;;;1.75;1.50;;;10.30;75.80;;;;;;5073356;28;20108;-73
2021/05/04 04:31:33;;;;;;;3.30;1.70;;;10.30;75.60;;;;;;5073111;28;20032;-74
2021/05/04 04:33:59;;;;;;;2.88;1.80;;;10.30;75.70;;;;;;5073481;28;20031;-73
2021/05/04 04:36:25;;;;;;;4.10;1.40;;;10.30;76.00;;;;;;5073216;28;20033;-73
2021/05/04 04:38:50;;;;;;;2.65;1.75;;;10.20;75.40;;;;;;5071610;28;20021;-73
2021/05/04 04:41:16;;;;;;;2.08;1.58;;;10.20;75.50;;;;;;5072910;28;20111;-73
2021/05/04 04:43:41;;;;;;;1.75;1.48;;;10.20;76.00;;;;;;5072926;28;20440;-74
2021/05/04 04:46:07;;;;;;;2.08;1.45;;;10.20;76.30;;;;;;5070996;28;20058;-74
2021/05/04 04:48:33;;;;;;;2.65;1.92;;;10.20;76.50;;;;;;5073069;28;20459;-73
2021/05/04 04:50:58;;;;;;;4.13;1.80;;;10.20;76.80;;;;;;5072765;28;20043;-73
2021/05/04 04:53:24;;;;;;;2.28;1.50;;;10.20;77.20;;;;;;5073173;28;20487;-73
2021/05/04 04:55:50;;;;;;;1.60;1.50;;;10.10;77.30;;;;;;5071458;28;20434;-73
2021/05/04 04:58:16;;;;;;;2.15;1.50;;;10.20;77.30;;;;;;5071351;28;20063;-74
2021/05/04 05:00:41;;;;;;;2.15;1.73;;;10.20;77.30;;;;;;5071304;28;20131;-74
2021/05/04 05:03:07;;;;;;;3.05;1.83;;;10.20;77.60;;;;;;5071288;28;20031;-73
2021/05/04 05:05:33;;;;;;;1.45;1.30;;;10.20;77.80;;;;;;5072571;28;20028;-74
2021/05/04 05:07:58;;;;;;;2.60;1.50;;;10.20;77.10;;;;;;5071164;28;20025;-74
2021/05/04 05:10:24;;;;;;;3.47;1.65;;;10.20;77.10;;;;;;5072548;28;20383;-74
2021/05/04 05:12:50;;;;;;;4.57;1.60;;;10.20;76.90;;;;;;5071252;28;20111;-74
2021/05/04 05:15:15;;;;;;;2.22;1.73;;;10.30;77.50;;;;;;5071187;28;20033;-74
2021/05/04 05:17:41;;;;;;;3.25;1.77;;;10.20;77.70;;;;;;5072504;28;20119;-74
2021/05/04 05:20:08;;;;;;;2.88;1.95;;;10.20;77.70;;;;;;5072341;28;20047;-74
2021/05/04 05:22:34;;;;;;;5.15;2.00;;;10.20;77.90;;;;;;5072455;28;20028;-73
2021/05/04 05:25:00;;;;;;;3.15;1.70;;;10.30;78.40;;;;;;5072158;28;20036;-72
2021/05/04 05:27:28;;;;;;;5.38;1.90;;;10.30;78.10;;;;;;5071034;28;20036;-73
2021/05/04 05:29:53;;;;;;;2.50;1.70;;;10.20;78.40;;;;;;5072336;28;20020;-73
2021/05/04 05:32:19;;;;;;;4.80;2.05;;;10.20;78.50;;;;;;5072613;28;20448;-73
2021/05/04 05:34:45;;;;;;;2.65;1.80;;;10.30;78.40;;;;;;5072318;28;20039;-73
2021/05/04 05:37:11;;;;;;;3.42;2.60;;;10.30;78.50;;;;;;5072304;28;20032;-72
2021/05/04 05:39:41;;;;;;;2.45;1.70;;;10.30;78.30;;;;;;5070766;28;20039;-73
2021/05/04 05:42:07;;;;;;;1.60;1.40;;;10.40;78.30;;;;;;5070856;28;20032;-72
2021/05/04 05:44:33;;;;;;;2.63;1.58;;;10.40;78.10;;;;;;5070933;28;20170;-73
2021/05/04 05:46:58;;;;;;;2.60;1.30;;;10.50;78.00;;;;;;5070699;28;20488;-73
2021/05/04 05:49:24;;;;;;;3.33;1.40;;;10.50;77.80;;;;;;5072469;28;20079;-73
2021/05/04 05:51:50;;;;;;;4.18;1.67;;;10.50;77.50;;;;;;5070744;28;20417;-73
2021/05/04 05:54:15;;;;;;;5.10;1.73;;;10.60;77.60;;;;;;5070839;28;20076;-73
2021/05/04 05:56:41;;;;;;;2.60;1.48;;;10.60;77.60;;;;;;5072626;28;20032;-74
2021/05/04 05:59:06;;;;;;;4.47;1.40;;;10.60;77.60;;;;;;5074659;28;20450;-73
2021/05/04 06:01:32;;;;;;;4.13;1.63;;;10.60;77.60;;;;;;5074451;28;20127;-73
2021/05/04 06:03:58;;;;;;;2.80;1.25;;;10.60;77.40;;;;;;5075993;28;20111;-73
2021/05/04 06:06:23;;;;;;;4.60;1.30;;;10.60;77.20;;;;;;5074472;28;20470;-73
2021/05/04 06:08:50;;;;;;;4.32;1.10;;;10.70;77.20;;;;;;5074268;28;20036;-72
2021/05/04 06:11:18;;;;;;;1.98;1.20;;;10.70;77.30;;;;;;5075582;28;20120;-73
2021/05/04 06:13:44;;;;;;;2.83;1.40;;;10.70;76.80;;;;;;5075930;28;20107;-72
2021/05/04 06:16:10;;;;;;;5.28;1.52;;;10.80;77.00;;;;;;5075735;28;20103;-72
2021/05/04 06:18:36;;;;;;;3.92;1.40;;;10.80;76.90;;;;;;5074314;28;20540;-73
2021/05/04 06:21:01;;;;;;;4.53;1.30;;;10.90;76.70;;;;;;5075249;28;20197;-73
2021/05/04 06:23:27;;;;;;;4.65;1.15;;;10.90;76.50;;;;;;5074052;28;20029;-73
2021/05/04 06:25:53;;;;;;;5.28;1.40;;;10.90;76.40;;;;;;5074148;28;20043;-72
2021/05/04 06:28:18;;;;;;;3.22;1.65;;;10.90;76.60;;;;;;5075917;28;20452;-73
2021/05/04 06:30:44;;;;;;;1.85;1.02;;;10.90;76.60;;;;;;5074043;28;20116;-73
2021/05/04 06:33:12;;;;;;;3.85;1.40;;;10.90;76.60;;;;;;5074013;28;20047;-72
2021/05/04 06:35:41;;;;;;;4.60;1.13;;;10.90;76.90;;;;;;5074237;28;20078;-72
2021/05/04 06:38:08;;;;;;;4.90;1.38;;;10.90;77.00;;;;;;5075504;28;20052;-73
2021/05/04 06:40:34;;;;;;;2.67;1.25;;;10.90;77.10;;;;;;5075325;28;20025;-73
2021/05/04 06:43:01;;;;;;;5.60;1.40;;;10.90;77.60;;;;;;5075314;28;20031;-73
2021/05/04 06:45:28;;;;;;;3.38;1.40;;;10.80;77.90;;;;;;5075157;28;20029;-73
2021/05/04 06:47:54;;;;;;;1.77;1.23;;;10.80;78.30;;;;;;5073857;28;20021;-73
2021/05/04 06:50:20;;;;;;;3.75;1.40;;;10.80;78.40;;;;;;5075553;28;20032;-72
2021/05/04 06:52:45;;;;;;;2.35;1.20;;;10.80;78.60;;;;;;5075097;28;20035;-73
2021/05/04 06:55:11;;;;;;;5.10;1.67;;;10.80;78.60;;;;;;5073806;28;20115;-73
2021/05/04 06:57:37;;;;;;;3.78;1.70;;;10.90;78.80;;;;;;5073690;28;20020;-74
2021/05/04 07:00:05;;;;;;;3.95;1.40;;;11.00;78.70;;;;;;5073628;28;20480;-73
2021/05/04 07:02:30;;;;;;;3.75;1.33;;;11.00;78.40;;;;;;5074906;28;20028;-73
2021/05/04 07:04:56;;;;;;;2.17;1.48;;;11.10;78.10;;;;;;5074778;28;20051;-73
2021/05/04 07:07:22;;;;;;;4.47;1.73;;;11.20;77.60;;;;;;5074565;28;20411;-73
2021/05/04 07:09:48;;;;;;;3.80;1.80;;;11.20;77.80;;;;;;5073423;28;20437;-73
2021/05/04 07:12:13;;;;;;;4.32;1.85;;;11.20;77.80;;;;;;5073455;28;20029;-73
2021/05/04 07:14:39;;;;;;;4.22;2.03;;;11.30;77.50;;;;;;5074692;28;20021;-73
2021/05/04 07:17:06;;;;;;;7.80;2.30;;;11.30;77.30;;;;;;5075006;28;20032;-73
2021/05/04 07:19:32;;;;;;;5.30;1.88;;;11.30;77.20;;;;;;5074616;28;20116;-73
2021/05/04 07:21:58;;;;;;;5.35;1.98;;;11.40;77.20;;;;;;5082600;28;20047;-74
2021/05/04 07:24:24;;;;;;;5.70;2.08;;;11.40;77.20;;;;;;5074714;28;20020;-73
2021/05/04 07:26:50;;;;;;;5.88;1.92;;;11.40;77.30;;;;;;5074608;28;20052;-73
2021/05/04 07:29:16;;;;;;;7.45;2.22;;;11.40;77.30;;;;;;5073211;28;20439;-73
2021/05/04 07:31:43;;;;;;;4.88;1.50;;;11.40;77.20;;;;;;5073131;28;20044;-73
2021/05/04 07:34:09;;;;;;;4.20;1.75;;;11.40;77.00;;;;;;5073289;28;20059;-72
2021/05/04 07:36:35;;;;;;;4.38;2.00;;;11.40;77.10;;;;;;5073155;28;20025;-72
2021/05/04 07:39:01;;;;;;;4.70;1.50;;;11.40;77.40;;;;;;5073187;28;20472;-72
2021/05/04 07:41:29;;;;;;;6.00;2.00;;;11.30;77.50;;;;;;5073070;28;20032;-73
2021/05/04 07:43:55;;;;;;;7.63;3.05;;;11.30;77.40;;;;;;5073101;28;20032;-72
2021/05/04 07:46:20;;;;;;;4.00;2.30;;;11.30;77.20;;;;;;5074298;28;20020;-73
2021/05/04 07:48:46;;;;;;;4.10;2.00;;;11.30;77.40;;;;;;5074717;28;20024;-72
2021/05/04 07:51:12;;;;;;;6.00;1.90;;;11.40;77.40;;;;;;5074771;28;20032;-72
2021/05/04 07:53:37;;;;;;;4.45;1.73;;;11.40;77.10;;;;;;5072884;28;20621;-73
2021/05/04 07:56:03;;;;;;;5.63;1.98;;;11.50;77.10;;;;;;5072779;28;20392;-72
2021/05/04 07:58:30;;;;;;;4.72;1.60;;;11.50;77.00;;;;;;5074090;28;20097;-73
2021/05/04 08:00:56;;;;;;;5.15;1.65;;;11.50;76.70;;;;;;5074119;28;20036;-74
2021/05/04 08:03:21;;;;;;;5.95;1.50;;;11.40;76.90;;;;;;5074076;28;20036;-74
2021/05/04 08:05:49;;;;;;;4.97;1.63;;;11.20;77.50;;;;;;5074221;28;20029;-73
2021/05/04 08:08:15;;;;;;;4.50;1.65;;;11.10;78.40;;;;;;5073768;28;20418;-73
2021/05/04 08:10:41;;;;;;;3.22;1.55;;;10.90;78.40;;;;;;5072526;28;20031;-73
2021/05/04 08:13:06;;;;;;;4.63;1.48;;;10.70;79.10;;;;;;5072430;28;20020;-73
2021/05/04 08:15:33;;;;;;;3.40;1.15;;;10.50;80.40;;;;;;5074145;28;20380;-73
2021/05/04 08:18:02;;;;;;;3.33;1.38;;;10.30;81.50;;;;;;5072246;28;20032;-72
2021/05/04 08:20:34;;;;;;;5.78;1.65;;;10.00;81.80;;;;;;5072897;28;20444;-73
2021/05/04 08:23:01;;;;;;;5.35;2.00;;;9.90;82.20;;;;;;5072126;28;20438;-73
2021/05/04 08:25:27;;;;;;;5.50;1.70;;;9.90;83.10;;;;;;5073311;28;20058;-73
2021/05/04 08:27:53;;;;;;;3.90;1.60;;;10.00;82.90;;;;;;5072176;28;20059;-73
2021/05/04 08:30:19;;;;;;;6.20;2.38;;;10.00;82.70;;;;;;5072017;28;20521;-73
2021/05/04 08:32:45;;;;;;;5.38;2.10;;;10.10;83.00;;;;;;5073323;28;20032;-73
2021/05/04 08:35:11;;;;;;;6.68;2.00;;;10.30;82.90;;;;;;5071990;28;20035;-73
2021/05/04 08:37:37;;;;;;;5.57;2.05;;;10.50;82.60;;;;;;5071772;28;20024;-73
2021/05/04 08:40:03;;;;;;;8.68;2.10;;;10.60;82.50;;;;;;5073138;28;20034;-73
2021/05/04 08:42:29;;;;;;;8.95;2.13;;;10.70;81.90;;;;;;5073171;28;20467;-73
2021/05/04 08:44:58;;;;;;;6.25;2.38;;;10.80;81.60;;;;;;5073228;28;20039;-73
2021/05/04 08:47:24;;;;;;;12.00;2.50;;;10.80;81.50;;;;;;5071748;28;20365;-73
2021/05/04 08:49:53;;;;;;;8.88;2.40;;;11.00;81.30;;;;;;5071661;28;20074;-73
2021/05/04 08:52:18;;;;;;;10.02;3.08;;;11.10;80.60;;;;;;5071591;28;20020;-73
2021/05/04 08:54:45;;;;;;;8.20;2.30;;;11.10;80.20;;;;;;5071563;28;20460;-73
2021/05/04 08:57:10;;;;;;;5.82;2.03;;;11.10;79.70;;;;;;5072643;28;20098;-73
2021/05/04 08:59:36;;;;;;;7.88;2.53;;;11.10;79.70;;;;;;5071387;28;20388;-73
2021/05/04 09:02:03;;;;;;;8.40;2.38;;;11.10;79.50;;;;;;5071330;28;20543;-73
2021/05/04 09:05:13;;;;;;;9.50;2.97;;;11.20;78.90;;;;;;5071532;28;20123;-73
2021/05/04 09:07:30;;;;;;;8.10;2.78;;;11.20;78.90;;;;;;5074971;28;20036;-74
2021/05/04 09:10:20;;;;;;;11.02;2.60;;;11.20;79.00;;;;;;5071382;28;20040;-74
2021/05/04 09:21:27;;;;;;;8.43;2.30;;;11.10;81.40;;;;;;5072504;28;20056;-72
2021/05/04 09:23:53;;;;;;;7.50;2.20;;;11.30;81.40;;;;;;5070951;28;20384;-72
2021/05/04 09:26:34;;;;;;;6.70;2.30;;;11.40;81.30;;;;;;5070807;28;20021;-73
2021/05/04 09:29:08;;;;;;;4.95;2.05;;;11.50;80.80;;;;;;5070905;28;20021;-73
2021/05/04 09:31:37;;;;;;;5.97;2.38;;;11.60;80.40;;;;;;5073011;28;20028;-73
2021/05/04 09:34:10;;;;;;;7.93;2.40;;;11.60;80.40;;;;;;5075077;28;20021;-73
2021/05/04 09:36:51;;;;;;;7.22;2.30;;;11.70;80.20;;;;;;5076319;28;20150;-73
2021/05/04 09:39:32;;;;;;;4.68;2.00;;;11.70;79.90;;;;;;5075070;28;20036;-73
2021/05/04 09:42:00;;;;;;;6.97;2.33;;;11.80;79.60;;;;;;5075005;28;20024;-73
2021/05/04 09:44:43;;;;;;;9.13;1.90;;;12.00;79.40;;;;;;5075081;28;20419;-73
2021/05/04 09:47:12;;;;;;;8.05;2.22;;;12.10;77.80;;;;;;5074799;28;20044;-73
2021/05/04 09:49:39;;;;;;;6.55;2.00;;;12.20;77.90;;;;;;5074961;28;20025;-74
2021/05/04 09:55:05;;;;;;;6.18;2.17;;;11.90;76.30;;;;;;5075383;28;20035;-74
2021/05/04 09:57:33;;;;;;;7.22;2.13;;;11.70;77.40;;;;;;5075943;28;20039;-74
2021/05/04 09:59:59;;;;;;;8.13;2.20;;;11.60;78.70;;;;;;5075026;28;20118;-73
2021/05/04 10:02:25;;;;;;;10.30;2.15;;;11.40;79.50;;;;;;5074489;28;20087;-74
2021/05/04 10:04:54;;;;;;;7.20;2.20;;;11.20;79.80;;;;;;5075717;28;20023;-73
2021/05/04 10:07:23;;;;;;;6.95;2.22;;;11.10;80.20;;;;;;5075653;28;20037;-74
2021/05/04 10:09:49;;;;;;;5.68;1.88;;;11.10;80.40;;;;;;5074530;28;20484;-74
2021/05/04 10:12:18;;;;;;;6.03;2.17;;;11.10;80.40;;;;;;5075892;28;20024;-74
2021/05/04 10:14:46;;;;;;;11.65;2.22;;;11.10;80.30;;;;;;5074373;28;20103;-74
2021/05/04 10:17:12;;;;;;;9.07;1.98;;;11.00;80.40;;;;;;5074323;28;20040;-74
2021/05/04 10:19:38;;;;;;;9.73;2.40;;;11.00;80.70;;;;;;5074261;28;20040;-74
2021/05/04 10:22:06;;;;;;;7.45;2.40;;;10.90;79.50;;;;;;5074162;28;20057;-73
2021/05/04 10:24:36;;;;;;;9.27;2.42;;;10.90;80.20;;;;;;5075629;28;20078;-73
2021/05/04 10:27:03;;;;;;;5.82;2.00;;;10.90;80.60;;;;;;5074181;28;20036;-74
2021/05/04 10:29:29;;;;;;;5.72;1.63;;;10.80;80.40;;;;;;5075483;28;20059;-73
2021/05/04 10:31:57;;;;;;;7.53;1.70;;;10.70;80.00;;;;;;5074233;28;20396;-73
2021/05/04 10:34:23;;;;;;;5.18;1.35;;;10.70;79.10;;;;;;5075335;28;20044;-73
2021/05/04 10:36:50;;;;;;;6.43;1.80;;;10.60;78.10;;;;;;5075573;28;20063;-73
2021/05/04 10:39:41;;;;;;;5.90;1.27;;;10.70;78.30;;;;;;5075005;28;20124;-73
2021/05/04 10:42:31;;;;;;;6.43;1.20;;;10.80;77.30;;;;;;5073858;28;20032;-73
2021/05/04 10:44:57;;;;;;;4.85;1.33;;;11.00;77.00;;;;;;5075491;28;20025;-73
2021/05/04 10:47:44;;;;;;;8.85;1.60;;;11.20;72.70;;;;;;5075960;28;20029;-73
2021/05/04 10:50:14;;;;;;;6.35;1.30;;;11.40;73.10;;;;;;5075925;28;20102;-73
2021/05/04 10:52:49;;;;;;;3.22;1.23;;;11.40;72.10;;;;;;5074063;28;20021;-74
2021/05/04 10:55:16;;;;;;;10.43;1.70;;;11.30;70.70;;;;;;5074025;28;20480;-74
2021/05/04 10:58:01;;;;;;;6.28;1.55;;;11.40;69.90;;;;;;5074053;28;20024;-74
2021/05/04 11:00:48;;;;;;;10.30;1.35;;;11.30;69.10;;;;;;5073853;28;20043;-73
2021/05/04 11:03:32;;;;;;;4.47;1.40;;;11.30;68.90;;;;;;5075465;28;20385;-73
2021/05/04 11:06:35;;;;;;;7.85;1.42;;;11.20;69.50;;;;;;5075612;28;20037;-73
2021/05/04 11:09:12;;;;;;;4.43;1.40;;;11.00;69.40;;;;;;5074949;28;20032;-74
2021/05/04 11:11:45;;;;;;;5.13;1.10;;;10.90;70.50;;;;;;5073855;28;20032;-73
2021/05/04 11:14:20;;;;;;;6.53;1.48;;;10.90;70.70;;;;;;5075131;28;20020;-74
2021/05/04 11:16:53;;;;;;;4.07;1.05;;;11.10;70.50;;;;;;5075034;28;20024;-74
2021/05/04 11:19:41;;;;;;;8.40;1.63;;;11.10;70.30;;;;;;5073726;28;20424;-73
2021/05/04 11:22:08;;;;;;;4.38;1.10;;;11.10;69.50;;;;;;5074835;28;20044;-73
2021/05/04 11:24:35;;;;;;;4.40;1.20;;;11.00;70.10;;;;;;5073541;28;20047;-73
2021/05/04 11:27:03;;;;;;;3.60;1.10;;;10.80;71.70;;;;;;5075390;28;20028;-73
2021/05/04 11:29:32;;;;;;;6.10;1.20;;;10.70;73.30;;;;;;5074911;28;20047;-73
2021/05/04 11:32:14;;;;;;;4.50;1.10;;;10.70;74.00;;;;;;5073606;28;20388;-74
2021/05/04 11:34:43;;;;;;;4.78;1.40;;;10.90;74.30;;;;;;5073517;28;20020;-73
2021/05/04 11:37:37;;;;;;;4.78;1.45;;;11.10;74.80;;;;;;5073559;28;20024;-73
2021/05/04 11:40:10;;;;;;;5.60;1.70;;;11.30;73.00;;;;;;5073351;28;20054;-73
2021/05/04 11:42:44;;;;;;;4.30;1.42;;;11.40;70.90;;;;;;5074499;28;20050;-73
2021/05/04 11:45:21;;;;;;;8.02;1.73;;;11.30;69.20;;;;;;5073684;28;20053;-73
2021/05/04 11:47:49;;;;;;;3.45;1.80;;;11.20;69.60;;;;;;5073239;28;20027;-74
2021/05/04 11:50:15;;;;;;;4.95;1.30;;;11.20;69.10;;;;;;5073357;28;20385;-74
2021/05/04 11:52:44;;;;;;;3.05;1.38;;;11.20;69.00;;;;;;5073307;28;20020;-73
2021/05/04 11:55:13;;;;;;;6.55;1.42;;;11.10;68.30;;;;;;5072089;28;20017;-73
2021/05/04 11:57:40;;;;;;;5.35;1.40;;;11.20;67.30;;;;;;5073336;28;20024;-73
2021/05/04 12:00:11;;;;;;;1.95;0.80;;;11.20;67.10;;;;;;5074377;28;20399;-73
2021/05/04 12:02:37;;;;;;;5.43;1.23;;;11.30;66.60;;;;;;5074325;28;20052;-73
2021/05/04 12:05:03;;;;;;;3.70;1.23;;;11.40;66.50;;;;;;5073040;28;20472;-73
2021/05/04 12:07:46;;;;;;;3.72;1.13;;;11.40;66.30;;;;;;5072797;28;20484;-72
2021/05/04 12:10:14;;;;;;;8.52;1.10;;;11.60;65.20;;;;;;5074410;28;20063;-73
2021/05/04 12:13:03;;;;;;;5.65;1.20;;;11.80;64.30;;;;;;5073928;28;20028;-73
2021/05/04 12:15:34;;;;;;;3.95;1.30;;;11.90;62.30;;;;;;5072489;28;20020;-73
2021/05/04 12:18:09;;;;;;;3.47;1.13;;;12.00;62.10;;;;;;5073932;28;20104;-74
2021/05/04 12:20:46;;;;;;;5.82;1.10;;;11.90;62.50;;;;;;5072440;28;20478;-74
2021/05/04 12:23:23;;;;;;;2.75;1.13;;;11.70;63.50;;;;;;5073853;28;20028;-74
2021/05/04 12:26:02;;;;;;;2.13;1.25;;;11.60;63.90;;;;;;5073411;28;20021;-74
2021/05/04 12:28:33;;;;;;;6.05;1.50;;;11.50;63.50;;;;;;5073392;28;20081;-74
2021/05/04 12:31:05;;;;;;;5.88;1.10;;;11.50;63.90;;;;;;5072059;28;20367;-74
2021/05/04 12:33:32;;;;;;;5.60;1.30;;;11.50;63.70;;;;;;5073389;28;20025;-73
2021/05/04 12:36:17;;;;;;;7.20;1.88;;;11.50;63.20;;;;;;5073314;28;20020;-73
2021/05/04 12:38:49;;;;;;;3.67;0.90;;;11.50;62.70;;;;;;5073241;28;20021;-74
2021/05/04 12:41:20;;;;;;;5.82;1.45;;;11.50;63.60;;;;;;5073581;28;20028;-73
2021/05/04 12:46:50;;;;;;;5.68;1.30;;;11.50;63.30;;;;;;5073382;28;20060;-74
2021/05/04 12:49:17;;;;;;;4.65;1.40;;;11.40;64.70;;;;;;5071855;28;20067;-75
2021/05/04 12:51:55;;;;;;;4.75;1.25;;;11.30;65.40;;;;;;5073208;28;20035;-74
2021/05/04 12:54:22;;;;;;;2.88;1.00;;;11.20;65.50;;;;;;5073253;28;20027;-74
2021/05/04 12:56:53;;;;;;;4.28;1.10;;;11.20;64.50;;;;;;5073017;28;20024;-73
2021/05/04 12:59:29;;;;;;;4.18;1.00;;;11.30;64.40;;;;;;5071846;28;20138;-75
2021/05/04 13:01:58;;;;;;;3.10;1.20;;;11.50;63.30;;;;;;5071596;28;20028;-74
2021/05/04 13:04:42;;;;;;;1.77;0.90;;;11.50;63.00;;;;;;5071603;28;20024;-73